Terminal Aerodrome Forecast
Issued by NWS

Home | Current Version | Previous Version | Graphics & Text | Print | Product List | Glossary On
Versions: 1 2 3 4 5 6 7 8 9 10 11 12 13 14 15 16 17 18 19
655
FTUS43 KIWX 260228 AAA
TAFSBN
TAF AMD
KSBN 260228Z 2602/2624 20014G21KT P6SM VCTS BKN070CB
     FM260400 25010KT P6SM BKN070
      TEMPO 2604/2607 4SM TSRA BKN050CB
     FM261200 32008KT P6SM SCT250
     FM262200 02012KT P6SM BKN080=

USA.gov is the U.S. government's official web portal to all federal, state and local government web resources and services.